Time;durP1;ratioP1;P1;durP2;ratioP2;P2;SDS_P1;SDS_P2;PMS_P1;PMS_P2;Temp;Humidity;BMP_temperature;BMP_pressure;BME280_temperature;BME280_humidity;BME280_pressure;Samples;Min_cycle;Max_cycle;Signal;HPM_P1;HPM_P2
2022/10/17 00:01:54;;;;;;;27.90;12.52;;;12.60;99.90;;;;;;5039352;28;20421;-67
2022/10/17 00:04:20;;;;;;;32.88;13.70;;;12.60;99.90;;;;;;5040508;28;20040;-68
2022/10/17 00:06:45;;;;;;;31.70;13.15;;;12.60;99.90;;;;;;5043861;28;20037;-67
2022/10/17 00:09:11;;;;;;;30.80;13.88;;;12.60;99.90;;;;;;5041662;28;20136;-68
2022/10/17 00:11:37;;;;;;;32.70;14.20;;;12.60;99.90;;;;;;5040591;28;20560;-68
2022/10/17 00:14:02;;;;;;;35.97;13.88;;;12.60;99.90;;;;;;5043654;28;20045;-68
2022/10/17 00:16:36;;;;;;;32.40;13.68;;;12.70;99.90;;;;;;5041895;28;20044;-68
2022/10/17 00:19:05;;;;;;;33.60;13.82;;;12.70;99.90;;;;;;5042407;28;20385;-66
2022/10/17 00:21:32;;;;;;;26.50;13.88;;;12.80;99.90;;;;;;5036446;28;20037;-66
2022/10/17 00:23:58;;;;;;;32.97;14.40;;;12.70;99.90;;;;;;5041225;28;20190;-66
2022/10/17 00:26:24;;;;;;;39.03;14.32;;;12.80;99.90;;;;;;5041292;28;20040;-66
2022/10/17 00:28:51;;;;;;;27.20;14.38;;;12.80;99.90;;;;;;5041546;28;20800;-66
2022/10/17 00:31:19;;;;;;;40.50;16.25;;;12.80;99.90;;;;;;5037893;28;20045;-67
2022/10/17 00:33:45;;;;;;;28.30;14.77;;;12.90;99.90;;;;;;5044587;28;20029;-68
2022/10/17 00:36:14;;;;;;;32.15;15.57;;;12.90;99.90;;;;;;5040808;28;20430;-67
2022/10/17 00:38:42;;;;;;;31.15;15.93;;;12.90;99.90;;;;;;5042809;28;20037;-68
2022/10/17 00:41:09;;;;;;;36.85;16.52;;;12.90;99.90;;;;;;5036891;28;20533;-67
2022/10/17 00:43:56;;;;;;;37.95;16.55;;;13.00;99.90;;;;;;5041727;28;20515;-67
2022/10/17 00:46:24;;;;;;;34.10;16.83;;;13.00;99.90;;;;;;5040478;28;20041;-67
2022/10/17 00:48:53;;;;;;;35.15;16.05;;;13.00;99.90;;;;;;5044105;28;20422;-68
2022/10/17 00:51:23;;;;;;;39.30;16.45;;;13.00;99.90;;;;;;5038371;28;20584;-68
2022/10/17 00:53:50;;;;;;;37.03;16.92;;;13.00;99.90;;;;;;5038131;28;20387;-67
2022/10/17 00:56:18;;;;;;;33.97;16.45;;;13.00;99.90;;;;;;5044669;28;20041;-67
2022/10/17 00:58:44;;;;;;;34.70;16.15;;;13.10;99.90;;;;;;5041336;28;20033;-67
2022/10/17 01:01:10;;;;;;;42.83;17.35;;;13.10;99.90;;;;;;5037935;28;20045;-67
2022/10/17 01:03:35;;;;;;;34.05;16.70;;;13.10;99.90;;;;;;5041631;28;20059;-68
2022/10/17 01:06:01;;;;;;;39.70;16.73;;;13.10;99.90;;;;;;5044126;28;20048;-67
2022/10/17 01:08:26;;;;;;;35.13;16.70;;;13.10;99.90;;;;;;5041561;28;20094;-68
2022/10/17 01:11:04;;;;;;;31.55;16.58;;;13.10;99.90;;;;;;5036563;28;20256;-68
2022/10/17 01:13:41;;;;;;;30.45;15.70;;;13.10;99.90;;;;;;5073399;28;20048;-68
2022/10/17 01:16:30;;;;;;;35.28;15.85;;;13.10;99.90;;;;;;5041689;28;20075;-68
2022/10/17 01:19:05;;;;;;;39.55;15.88;;;13.00;99.90;;;;;;5038866;28;20045;-68
2022/10/17 01:21:54;;;;;;;28.58;15.52;;;13.00;99.90;;;;;;5038329;28;20028;-67
2022/10/17 01:24:56;;;;;;;38.13;16.10;;;13.00;99.90;;;;;;5071474;28;20033;-67
2022/10/17 01:27:38;;;;;;;34.92;16.33;;;12.90;99.90;;;;;;5034845;28;20034;-68
2022/10/17 01:30:28;;;;;;;32.05;17.33;;;12.80;99.90;;;;;;5041660;28;20049;-68
2022/10/17 01:33:22;;;;;;;32.97;16.70;;;12.80;99.90;;;;;;5032981;28;20492;-68
2022/10/17 01:35:56;;;;;;;35.50;17.38;;;12.70;99.90;;;;;;5038280;28;20151;-68
2022/10/17 01:38:29;;;;;;;38.22;16.50;;;12.70;99.90;;;;;;5038721;28;20069;-67
2022/10/17 01:41:38;;;;;;;34.78;16.60;;;12.70;99.90;;;;;;5040369;28;20404;-67
2022/10/17 01:44:26;;;;;;;36.22;16.80;;;12.60;99.90;;;;;;5039102;28;20102;-67
2022/10/17 01:47:16;;;;;;;40.53;17.23;;;12.60;99.90;;;;;;5037701;28;20060;-67
2022/10/17 01:49:44;;;;;;;37.67;17.48;;;12.60;99.90;;;;;;5043048;28;20096;-67
2022/10/17 01:52:18;;;;;;;36.30;17.98;;;12.60;99.90;;;;;;5038796;28;20106;-67
2022/10/17 01:55:06;;;;;;;43.53;18.27;;;12.60;99.90;;;;;;5040006;28;20041;-67
2022/10/17 01:57:40;;;;;;;35.88;17.73;;;12.50;99.90;;;;;;5066129;28;20045;-67
2022/10/17 02:00:10;;;;;;;39.30;17.95;;;12.50;99.90;;;;;;5038394;28;20349;-68
2022/10/17 02:02:36;;;;;;;47.47;19.35;;;12.50;99.90;;;;;;5037892;28;20068;-68
2022/10/17 02:05:03;;;;;;;41.97;18.02;;;12.50;99.90;;;;;;5041643;28;20037;-67
2022/10/17 02:07:28;;;;;;;37.40;18.00;;;12.50;99.90;;;;;;5041636;28;20045;-68
2022/10/17 02:09:54;;;;;;;39.78;18.90;;;12.50;99.90;;;;;;5040806;28;20037;-68
2022/10/17 02:12:35;;;;;;;41.97;19.60;;;12.50;99.90;;;;;;5023489;28;20045;-68
2022/10/17 02:15:28;;;;;;;43.30;19.20;;;12.50;99.90;;;;;;5035397;28;20041;-67
2022/10/17 02:18:24;;;;;;;39.85;18.45;;;12.50;99.90;;;;;;5042999;28;20048;-67
2022/10/17 02:21:01;;;;;;;37.97;18.80;;;12.40;99.90;;;;;;5039623;28;20052;-67
2022/10/17 02:23:41;;;;;;;40.70;18.63;;;12.40;99.90;;;;;;5040645;28;20037;-67
2022/10/17 02:26:20;;;;;;;37.97;18.25;;;12.40;99.90;;;;;;5038959;28;20128;-68
2022/10/17 02:29:11;;;;;;;39.58;18.88;;;12.50;99.90;;;;;;5035854;28;20442;-67
2022/10/17 02:31:38;;;;;;;33.08;18.52;;;12.40;99.90;;;;;;5038665;28;20090;-67
2022/10/17 02:34:08;;;;;;;43.10;19.67;;;12.40;99.90;;;;;;5040901;28;20041;-67
2022/10/17 02:36:45;;;;;;;38.55;18.98;;;12.40;99.90;;;;;;5042054;28;20127;-67
2022/10/17 02:39:11;;;;;;;43.75;20.50;;;12.40;99.90;;;;;;5037927;28;20032;-68
2022/10/17 02:41:39;;;;;;;39.90;20.55;;;12.40;99.90;;;;;;5036229;28;20068;-67
2022/10/17 02:44:07;;;;;;;41.83;20.60;;;12.40;99.90;;;;;;5032064;28;20499;-67
2022/10/17 02:46:35;;;;;;;45.75;21.27;;;12.50;99.90;;;;;;5049879;28;20037;-68
2022/10/17 02:49:17;;;;;;;44.30;21.10;;;12.40;99.90;;;;;;5070636;28;20048;-67
2022/10/17 02:51:51;;;;;;;45.70;21.10;;;12.40;99.90;;;;;;5043293;28;20117;-67
2022/10/17 02:54:20;;;;;;;48.08;22.50;;;12.40;99.90;;;;;;5040350;28;20071;-67
2022/10/17 02:56:52;;;;;;;45.88;22.10;;;12.50;99.90;;;;;;5039914;28;20045;-67
2022/10/17 02:59:21;;;;;;;47.88;23.52;;;12.50;99.90;;;;;;5038410;28;20488;-67
2022/10/17 03:01:50;;;;;;;52.08;23.25;;;12.50;99.90;;;;;;5041463;28;20102;-67
2022/10/17 03:04:17;;;;;;;48.65;22.75;;;12.40;99.90;;;;;;5040864;28;20095;-67
2022/10/17 03:06:43;;;;;;;50.85;23.20;;;12.40;99.90;;;;;;5039329;28;20056;-67
2022/10/17 03:09:09;;;;;;;51.78;23.50;;;12.50;99.90;;;;;;5037197;28;20047;-67
2022/10/17 03:11:35;;;;;;;55.25;23.35;;;12.50;99.90;;;;;;5042518;28;20067;-67
2022/10/17 03:14:00;;;;;;;52.65;23.42;;;12.50;99.90;;;;;;5045359;28;20064;-68
2022/10/17 03:16:26;;;;;;;56.08;24.05;;;12.50;99.90;;;;;;5041562;28;20068;-67
2022/10/17 03:18:51;;;;;;;53.15;23.85;;;12.50;99.90;;;;;;5045733;28;20078;-67
2022/10/17 03:21:17;;;;;;;52.67;23.52;;;12.50;99.90;;;;;;5045499;28;20087;-67
2022/10/17 03:23:42;;;;;;;57.95;25.40;;;12.50;99.90;;;;;;5046055;28;20037;-67
2022/10/17 03:26:09;;;;;;;51.88;24.85;;;12.50;99.90;;;;;;5044996;28;20476;-67
2022/10/17 03:28:35;;;;;;;49.58;23.30;;;12.60;99.90;;;;;;5039081;28;20029;-66
2022/10/17 03:31:09;;;;;;;52.28;24.60;;;12.50;99.90;;;;;;5041740;28;20049;-67
2022/10/17 03:33:35;;;;;;;57.50;25.80;;;12.60;99.90;;;;;;5041778;28;20041;-67
2022/10/17 03:36:08;;;;;;;61.15;28.73;;;12.70;99.90;;;;;;5040818;28;20047;-67
2022/10/17 03:38:34;;;;;;;61.47;25.52;;;12.60;99.90;;;;;;5039228;28;20044;-67
2022/10/17 03:41:01;;;;;;;62.35;26.08;;;12.70;99.90;;;;;;5039759;28;20059;-67
2022/10/17 03:43:26;;;;;;;58.63;25.73;;;12.70;99.90;;;;;;5037826;28;20479;-67
2022/10/17 03:45:52;;;;;;;59.35;26.30;;;12.70;99.90;;;;;;5027800;28;20037;-66
2022/10/17 03:48:17;;;;;;;55.45;26.67;;;12.80;99.90;;;;;;5044219;28;20040;-67
2022/10/17 03:50:43;;;;;;;56.55;25.75;;;12.80;99.90;;;;;;5039516;28;20060;-66
2022/10/17 03:53:08;;;;;;;62.40;26.75;;;12.70;99.90;;;;;;5039348;28;20102;-67
2022/10/17 03:55:34;;;;;;;63.42;26.85;;;12.80;99.90;;;;;;5045864;28;20041;-66
2022/10/17 03:57:59;;;;;;;62.28;27.33;;;12.70;99.90;;;;;;5042762;28;20055;-66
2022/10/17 04:00:25;;;;;;;62.63;28.05;;;12.80;99.90;;;;;;5076023;28;20060;-66
2022/10/17 04:02:51;;;;;;;66.32;28.13;;;12.80;99.90;;;;;;5043511;28;20036;-66
2022/10/17 04:05:16;;;;;;;63.45;27.83;;;12.80;99.90;;;;;;5045235;28;20040;-66
2022/10/17 04:07:42;;;;;;;64.97;27.30;;;12.80;99.90;;;;;;5042173;28;20369;-66
2022/10/17 04:10:08;;;;;;;64.80;27.83;;;12.80;99.90;;;;;;5040227;28;20041;-68
2022/10/17 04:12:33;;;;;;;67.20;27.48;;;12.90;99.90;;;;;;5038063;28;20052;-67
2022/10/17 04:14:59;;;;;;;67.10;28.15;;;12.80;99.90;;;;;;5042748;28;20043;-67
2022/10/17 04:17:24;;;;;;;71.63;28.17;;;12.90;99.90;;;;;;5039570;28;20083;-67
2022/10/17 04:19:50;;;;;;;68.13;27.27;;;12.90;99.90;;;;;;5043345;28;20500;-67
2022/10/17 04:22:16;;;;;;;68.68;28.50;;;13.00;99.90;;;;;;5042189;28;20041;-66
2022/10/17 04:24:41;;;;;;;70.03;28.67;;;12.90;99.90;;;;;;5043592;28;20367;-66
2022/10/17 04:27:07;;;;;;;66.20;28.40;;;13.00;99.90;;;;;;5041906;28;20044;-66
2022/10/17 04:29:32;;;;;;;75.78;28.85;;;13.10;99.90;;;;;;5041618;28;20356;-66
2022/10/17 04:31:58;;;;;;;70.25;27.98;;;13.00;99.90;;;;;;5023732;28;20498;-67
2022/10/17 04:34:24;;;;;;;75.07;31.00;;;13.10;99.90;;;;;;5044421;28;20057;-67
2022/10/17 04:36:50;;;;;;;86.60;30.42;;;13.10;99.90;;;;;;5040726;28;20045;-67
2022/10/17 04:39:16;;;;;;;65.38;28.70;;;13.20;99.90;;;;;;5041490;28;20049;-67
2022/10/17 04:41:42;;;;;;;70.95;28.98;;;13.20;99.90;;;;;;5041070;28;20087;-68
2022/10/17 04:44:08;;;;;;;71.32;30.25;;;13.10;99.90;;;;;;5045208;28;20036;-68
2022/10/17 04:46:34;;;;;;;76.82;29.67;;;13.30;99.90;;;;;;5044466;28;20041;-68
2022/10/17 04:49:00;;;;;;;69.85;28.90;;;13.40;99.90;;;;;;5040220;28;20083;-68
2022/10/17 04:51:25;;;;;;;67.35;29.33;;;13.40;99.90;;;;;;5040527;28;20069;-67
2022/10/17 04:53:51;;;;;;;71.32;29.27;;;13.40;99.90;;;;;;5039997;28;20545;-67
2022/10/17 04:56:19;;;;;;;62.05;27.77;;;13.30;99.90;;;;;;5028646;28;20131;-68
2022/10/17 04:58:46;;;;;;;70.63;29.00;;;13.30;99.90;;;;;;5039440;28;20033;-67
2022/10/17 05:01:15;;;;;;;69.22;29.02;;;13.40;99.90;;;;;;5038618;28;20052;-67
2022/10/17 05:03:41;;;;;;;68.57;29.15;;;13.30;99.90;;;;;;5041781;28;20037;-67
2022/10/17 05:06:18;;;;;;;70.82;28.73;;;13.30;99.90;;;;;;5048928;28;20036;-67
2022/10/17 05:08:45;;;;;;;63.47;28.45;;;13.30;99.90;;;;;;5050457;28;20040;-68
2022/10/17 05:11:18;;;;;;;71.05;28.70;;;13.40;99.90;;;;;;5040488;28;20060;-67
2022/10/17 05:13:43;;;;;;;68.00;27.98;;;13.50;99.90;;;;;;5041356;28;20042;-67
2022/10/17 05:16:09;;;;;;;70.22;28.48;;;13.40;99.90;;;;;;5049942;28;20058;-66
2022/10/17 05:18:35;;;;;;;67.30;27.23;;;13.40;99.90;;;;;;5048189;28;20040;-66
2022/10/17 05:21:03;;;;;;;62.33;27.88;;;13.40;99.90;;;;;;5043262;28;20132;-68
2022/10/17 05:23:29;;;;;;;67.60;28.95;;;13.40;99.90;;;;;;5040798;28;20041;-67
2022/10/17 05:25:55;;;;;;;70.10;28.27;;;13.50;99.90;;;;;;5041547;28;20048;-67
2022/10/17 05:28:22;;;;;;;62.67;26.98;;;13.40;99.90;;;;;;5056576;28;20496;-67
2022/10/17 05:30:47;;;;;;;64.43;26.80;;;13.40;99.90;;;;;;5036049;28;20052;-68
2022/10/17 05:33:13;;;;;;;60.38;26.75;;;13.40;99.90;;;;;;5052631;28;20396;-68
2022/10/17 05:35:38;;;;;;;65.30;28.38;;;13.30;99.90;;;;;;5036754;28;20076;-68
2022/10/17 05:38:04;;;;;;;70.32;28.02;;;13.50;99.90;;;;;;5040151;28;20114;-68
2022/10/17 05:40:29;;;;;;;68.55;28.13;;;13.50;99.90;;;;;;5035230;28;20137;-68
2022/10/17 05:42:55;;;;;;;66.32;27.88;;;13.40;99.90;;;;;;5043555;28;20537;-68
2022/10/17 05:45:21;;;;;;;69.35;27.40;;;13.50;99.90;;;;;;5068615;28;20095;-68
2022/10/17 05:47:46;;;;;;;67.82;27.20;;;13.50;99.90;;;;;;5039017;28;20104;-68
2022/10/17 05:50:12;;;;;;;67.32;28.40;;;13.50;99.90;;;;;;5041102;28;20040;-68
2022/10/17 05:52:38;;;;;;;73.45;29.00;;;13.60;99.90;;;;;;5039620;28;20128;-68
2022/10/17 05:55:05;;;;;;;64.47;26.73;;;13.60;99.90;;;;;;5041275;28;20044;-68
2022/10/17 05:57:31;;;;;;;68.05;27.65;;;13.60;99.90;;;;;;5043776;28;20041;-68
2022/10/17 05:59:56;;;;;;;74.28;27.50;;;13.70;99.90;;;;;;5035199;28;20044;-69
2022/10/17 06:02:22;;;;;;;67.97;27.40;;;13.80;99.90;;;;;;5037218;28;20110;-68
2022/10/17 06:04:48;;;;;;;63.00;27.00;;;13.70;99.90;;;;;;5045747;28;20432;-68
2022/10/17 06:07:15;;;;;;;66.13;27.38;;;13.80;99.90;;;;;;5041349;28;20047;-68
2022/10/17 06:09:41;;;;;;;71.97;27.80;;;13.80;99.90;;;;;;5042529;28;20033;-67
2022/10/17 06:12:07;;;;;;;70.45;27.42;;;13.80;99.90;;;;;;5033695;28;20056;-68
2022/10/17 06:14:33;;;;;;;59.00;26.38;;;13.90;99.90;;;;;;5044800;28;20037;-68
2022/10/17 06:16:59;;;;;;;65.40;25.50;;;13.80;99.90;;;;;;5044862;28;20044;-68
2022/10/17 06:19:24;;;;;;;65.30;27.50;;;13.90;99.90;;;;;;5039963;28;20516;-68
2022/10/17 06:21:50;;;;;;;62.50;26.15;;;13.90;99.90;;;;;;5038598;28;20040;-68
2022/10/17 06:24:16;;;;;;;61.53;26.05;;;14.00;99.90;;;;;;5070803;28;20037;-68
2022/10/17 06:26:42;;;;;;;63.95;25.88;;;14.00;99.90;;;;;;5038346;28;20053;-68
2022/10/17 06:29:07;;;;;;;66.60;27.27;;;14.00;99.90;;;;;;5034554;28;20056;-67
2022/10/17 06:31:33;;;;;;;65.68;24.52;;;14.10;99.90;;;;;;5036046;28;20037;-68
2022/10/17 06:33:58;;;;;;;64.30;27.48;;;14.10;99.90;;;;;;5045133;28;20099;-68
2022/10/17 06:36:24;;;;;;;63.92;25.20;;;14.00;99.90;;;;;;5041568;28;20072;-68
2022/10/17 06:38:50;;;;;;;59.50;25.23;;;14.10;99.90;;;;;;5074387;28;20029;-68
2022/10/17 06:41:18;;;;;;;59.88;24.77;;;14.10;99.90;;;;;;5042264;28;20494;-67
2022/10/17 06:43:47;;;;;;;58.13;25.42;;;14.20;99.90;;;;;;5043071;28;20047;-68
2022/10/17 06:46:17;;;;;;;58.38;25.70;;;14.20;99.90;;;;;;5050592;28;20056;-68
2022/10/17 06:48:43;;;;;;;56.53;24.20;;;14.30;99.90;;;;;;5046005;28;20029;-68
2022/10/17 06:51:10;;;;;;;61.08;25.70;;;14.30;99.90;;;;;;5031372;28;20048;-68
2022/10/17 06:53:36;;;;;;;61.75;25.77;;;14.30;99.90;;;;;;5046008;28;20128;-68
2022/10/17 06:56:03;;;;;;;56.08;25.05;;;14.40;99.90;;;;;;5045794;28;20541;-68
2022/10/17 06:58:31;;;;;;;59.03;24.45;;;14.30;99.90;;;;;;5046800;28;20281;-68
2022/10/17 07:00:58;;;;;;;57.53;24.15;;;14.50;99.90;;;;;;5040997;28;20487;-68
2022/10/17 07:03:24;;;;;;;53.35;23.50;;;14.50;99.90;;;;;;5046200;28;20033;-68
2022/10/17 07:05:53;;;;;;;58.33;23.52;;;14.50;99.90;;;;;;5041319;28;20038;-68
2022/10/17 07:08:19;;;;;;;55.95;22.60;;;14.70;99.90;;;;;;5034114;28;20071;-68
2022/10/17 07:10:45;;;;;;;54.40;22.25;;;14.60;99.90;;;;;;5041965;28;20037;-68
2022/10/17 07:13:10;;;;;;;51.85;23.02;;;14.70;99.90;;;;;;5041775;28;20037;-68
2022/10/17 07:15:37;;;;;;;65.80;25.33;;;14.80;99.90;;;;;;5046436;28;20045;-67
2022/10/17 07:18:03;;;;;;;54.10;23.00;;;14.90;99.90;;;;;;5038441;28;20195;-68
2022/10/17 07:20:29;;;;;;;65.05;23.83;;;14.90;99.90;;;;;;5047317;28;20107;-68
2022/10/17 07:22:55;;;;;;;53.78;22.67;;;14.90;99.90;;;;;;5045432;28;20251;-68
2022/10/17 07:25:21;;;;;;;52.03;22.85;;;15.00;99.90;;;;;;5045757;28;20033;-68
2022/10/17 07:27:48;;;;;;;57.13;23.30;;;15.10;99.90;;;;;;5043690;28;20388;-68
2022/10/17 07:30:14;;;;;;;52.67;23.45;;;15.00;99.90;;;;;;5047837;28;20072;-67
2022/10/17 07:32:40;;;;;;;60.65;24.58;;;15.20;99.90;;;;;;5048356;28;20117;-68
2022/10/17 07:35:06;;;;;;;54.53;22.67;;;15.30;99.90;;;;;;5049092;28;20061;-68
2022/10/17 07:37:32;;;;;;;49.22;22.17;;;15.40;99.90;;;;;;5045157;28;20580;-68
2022/10/17 07:39:58;;;;;;;53.08;23.23;;;15.40;99.90;;;;;;5045465;28;20033;-67
2022/10/17 07:42:23;;;;;;;62.10;23.95;;;15.40;99.90;;;;;;5075222;28;20040;-68
2022/10/17 07:44:49;;;;;;;58.35;22.63;;;15.40;99.90;;;;;;5039700;28;20033;-68
2022/10/17 07:47:15;;;;;;;56.42;24.55;;;15.50;99.90;;;;;;5044510;28;20040;-68
2022/10/17 07:49:42;;;;;;;53.55;22.45;;;15.60;99.90;;;;;;5040283;28;20129;-68
2022/10/17 07:52:13;;;;;;;46.95;21.80;;;15.50;99.90;;;;;;5042777;28;20051;-68
2022/10/17 07:54:39;;;;;;;50.67;21.80;;;15.60;99.90;;;;;;5048291;28;20442;-68
2022/10/17 07:57:05;;;;;;;50.47;21.73;;;15.70;99.90;;;;;;5069567;28;20037;-68
2022/10/17 07:59:32;;;;;;;47.50;21.02;;;15.70;99.90;;;;;;5043098;28;21383;-67
2022/10/17 08:01:58;;;;;;;47.72;21.52;;;15.70;99.90;;;;;;5040223;28;20387;-66
2022/10/17 08:04:24;;;;;;;46.35;20.17;;;15.80;99.90;;;;;;5034428;28;20715;-68
2022/10/17 08:06:50;;;;;;;49.10;20.13;;;15.90;99.90;;;;;;5041931;28;20423;-67
2022/10/17 08:09:16;;;;;;;49.47;20.58;;;16.00;99.90;;;;;;5070910;28;20029;-67
2022/10/17 08:11:44;;;;;;;43.88;19.58;;;15.90;99.90;;;;;;5039496;28;20423;-67
2022/10/17 08:14:15;;;;;;;44.97;19.45;;;16.00;99.90;;;;;;5074618;28;21434;-67
2022/10/17 08:16:41;;;;;;;38.00;19.05;;;16.10;99.90;;;;;;5052734;28;20194;-67
2022/10/17 08:19:10;;;;;;;47.80;19.77;;;16.00;99.90;;;;;;5080940;28;20044;-67
2022/10/17 08:21:37;;;;;;;43.17;18.90;;;15.90;99.90;;;;;;5047431;28;20499;-67
2022/10/17 08:24:03;;;;;;;40.30;19.10;;;16.10;99.90;;;;;;5047941;28;20484;-67
2022/10/17 08:26:29;;;;;;;46.22;19.63;;;16.10;99.90;;;;;;5050126;28;20041;-67
2022/10/17 08:28:55;;;;;;;43.75;18.92;;;16.10;99.90;;;;;;5059633;28;20529;-67
2022/10/17 08:31:21;;;;;;;39.78;18.65;;;16.00;99.90;;;;;;5040045;28;20032;-68
2022/10/17 08:33:48;;;;;;;40.10;18.40;;;16.00;99.90;;;;;;5036702;28;20476;-68
2022/10/17 08:36:16;;;;;;;44.03;19.63;;;16.20;99.90;;;;;;5044660;28;20045;-67
2022/10/17 08:38:43;;;;;;;42.13;19.00;;;16.20;99.90;;;;;;5044615;28;20086;-67
2022/10/17 08:41:35;;;;;;;44.63;19.00;;;16.20;99.90;;;;;;5038589;28;20045;-66
2022/10/17 08:44:18;;;;;;;45.60;19.20;;;16.20;99.90;;;;;;5032437;28;20077;-67
2022/10/17 08:46:49;;;;;;;39.15;18.52;;;16.10;99.90;;;;;;5046833;28;20037;-67
2022/10/17 08:49:24;;;;;;;43.50;18.42;;;16.20;99.90;;;;;;5047122;28;20430;-67
2022/10/17 08:51:54;;;;;;;44.40;19.83;;;16.30;99.90;;;;;;5049208;28;20383;-66
2022/10/17 08:54:41;;;;;;;51.47;18.95;;;16.20;99.90;;;;;;5049095;28;20041;-66
2022/10/17 08:57:14;;;;;;;43.38;19.20;;;16.30;99.90;;;;;;5050120;28;20033;-66
2022/10/17 08:59:41;;;;;;;39.03;18.65;;;16.30;99.90;;;;;;5033516;28;20041;-65
2022/10/17 09:02:46;;;;;;;39.22;19.55;;;16.40;99.90;;;;;;5048101;28;20048;-66
2022/10/17 09:05:41;;;;;;;41.65;19.25;;;16.40;99.90;;;;;;5048002;28;20486;-66
2022/10/17 09:08:53;;;;;;;41.83;20.38;;;16.30;99.90;;;;;;5049022;28;20379;-65
2022/10/17 09:11:28;;;;;;;39.37;18.40;;;16.40;99.90;;;;;;5028564;28;20041;-67
2022/10/17 09:14:17;;;;;;;50.97;20.70;;;16.40;99.90;;;;;;5039645;28;20040;-66
2022/10/17 09:16:49;;;;;;;50.30;22.48;;;16.40;99.90;;;;;;5049670;28;20049;-66
2022/10/17 09:19:27;;;;;;;50.33;20.40;;;16.40;99.90;;;;;;5038618;28;20157;-65
2022/10/17 09:22:03;;;;;;;48.58;20.77;;;16.50;99.90;;;;;;5049834;28;20039;-65
2022/10/17 09:24:41;;;;;;;46.97;20.88;;;16.50;99.90;;;;;;5044972;28;20037;-65
2022/10/17 09:27:26;;;;;;;48.15;21.73;;;16.50;99.90;;;;;;5078984;28;20440;-66
2022/10/17 09:30:18;;;;;;;45.63;20.65;;;16.40;99.90;;;;;;5048173;28;20041;-65
2022/10/17 09:32:46;;;;;;;46.03;21.60;;;16.40;99.90;;;;;;5049132;28;20044;-64
2022/10/17 09:35:13;;;;;;;53.35;22.60;;;16.50;99.90;;;;;;5048759;28;20419;-67
2022/10/17 09:37:40;;;;;;;64.43;24.48;;;16.30;99.90;;;;;;5080714;28;20044;-65
2022/10/17 09:40:18;;;;;;;60.25;24.25;;;16.50;99.90;;;;;;5073887;28;20082;-66
2022/10/17 09:42:46;;;;;;;56.38;24.10;;;16.50;99.90;;;;;;5029156;28;20046;-66
2022/10/17 09:45:24;;;;;;;59.97;23.95;;;16.40;99.90;;;;;;5029961;28;20088;-68
2022/10/17 09:48:18;;;;;;;62.80;25.40;;;16.50;99.90;;;;;;5049521;28;20082;-65
2022/10/17 09:50:45;;;;;;;58.28;24.08;;;16.50;99.90;;;;;;5046751;28;20056;-67
2022/10/17 09:53:24;;;;;;;57.33;23.65;;;16.30;99.90;;;;;;5043913;28;20436;-67
2022/10/17 09:56:02;;;;;;;61.60;24.65;;;16.40;99.90;;;;;;5073555;28;20074;-69
2022/10/17 09:58:45;;;;;;;66.55;26.15;;;16.50;99.90;;;;;;5038558;28;20488;-66
2022/10/17 10:01:20;;;;;;;64.65;24.77;;;16.50;99.90;;;;;;5040542;28;20033;-70
2022/10/17 10:03:46;;;;;;;67.72;26.50;;;16.50;99.90;;;;;;5068756;28;20091;-71
2022/10/17 10:06:15;;;;;;;68.13;25.92;;;16.50;99.90;;;;;;5044384;28;20037;-69
2022/10/17 10:08:57;;;;;;;62.53;24.58;;;16.30;99.90;;;;;;5040001;28;20119;-72
2022/10/17 10:11:44;;;;;;;68.07;25.55;;;16.40;99.90;;;;;;5038145;28;20048;-71
2022/10/17 10:14:20;;;;;;;74.55;26.50;;;16.50;99.90;;;;;;5064778;28;20488;-71
2022/10/17 10:16:48;;;;;;;76.50;26.50;;;16.40;99.90;;;;;;5045617;28;20427;-71
2022/10/17 10:19:35;;;;;;;69.97;26.67;;;16.30;99.90;;;;;;5047313;28;20053;-70
2022/10/17 10:22:13;;;;;;;68.25;25.73;;;16.50;99.90;;;;;;5047920;28;20580;-70
2022/10/17 10:24:39;;;;;;;73.53;25.63;;;16.50;99.90;;;;;;5043775;28;20044;-71
2022/10/17 10:27:09;;;;;;;66.10;26.25;;;16.30;99.90;;;;;;5082445;28;20028;-70
2022/10/17 10:29:52;;;;;;;85.85;27.40;;;16.30;99.90;;;;;;5046794;28;20056;-69
2022/10/17 10:32:30;;;;;;;70.53;25.27;;;16.40;99.90;;;;;;5056048;28;20407;-68
2022/10/17 10:35:18;;;;;;;74.32;25.38;;;16.40;99.90;;;;;;5047485;28;20048;-68
2022/10/17 10:37:48;;;;;;;69.75;24.25;;;16.20;99.90;;;;;;5046605;28;20120;-67
2022/10/17 10:40:17;;;;;;;64.20;23.73;;;16.20;99.90;;;;;;5045360;28;20373;-68
2022/10/17 10:42:46;;;;;;;86.18;26.67;;;16.30;99.90;;;;;;5080350;28;20056;-68
2022/10/17 10:45:16;;;;;;;61.33;23.50;;;16.30;99.90;;;;;;5078714;28;20392;-68
2022/10/17 10:47:53;;;;;;;72.88;25.20;;;16.40;99.90;;;;;;5048514;28;20045;-68
2022/10/17 10:50:21;;;;;;;69.78;25.23;;;16.40;99.90;;;;;;5046728;28;20041;-68
2022/10/17 10:53:04;;;;;;;62.30;24.02;;;16.20;99.90;;;;;;5045444;28;20044;-68
2022/10/17 10:55:31;;;;;;;;;;;16.40;99.90;;;;;;5041100;28;20124;-69
2022/10/17 10:58:03;;;;;;;71.22;24.83;;;16.40;99.90;;;;;;5073845;28;19928;-68
2022/10/17 11:00:33;;;;;;;79.17;26.90;;;16.30;99.90;;;;;;5036396;28;20037;-69
2022/10/17 11:03:04;;;;;;;72.55;26.27;;;16.40;99.90;;;;;;5063471;28;20114;-68
2022/10/17 11:05:40;;;;;;;70.67;25.53;;;16.40;99.90;;;;;;5039009;28;20439;-69
2022/10/17 11:08:19;;;;;;;62.55;24.75;;;16.50;99.90;;;;;;5043561;28;20056;-68
2022/10/17 11:11:22;;;;;;;85.60;26.48;;;16.40;99.90;;;;;;5045885;28;20488;-68
2022/10/17 11:14:00;;;;;;;91.93;28.15;;;16.40;99.90;;;;;;5044967;28;20105;-68
2022/10/17 11:16:32;;;;;;;64.35;24.55;;;16.40;99.90;;;;;;5046322;28;20090;-68
2022/10/17 11:19:07;;;;;;;82.70;26.98;;;16.50;99.90;;;;;;5041772;28;20040;-69
2022/10/17 11:21:57;;;;;;;76.93;25.65;;;16.40;99.90;;;;;;5046926;28;20080;-70
2022/10/17 11:24:58;;;;;;;69.35;25.17;;;16.30;99.90;;;;;;5038904;28;20095;-69
2022/10/17 11:27:26;;;;;;;61.25;24.73;;;16.50;99.90;;;;;;5036249;28;20107;-70
2022/10/17 11:29:52;;;;;;;69.18;25.33;;;16.30;99.90;;;;;;5041284;28;20045;-69
2022/10/17 11:32:31;;;;;;;66.60;25.02;;;16.30;99.90;;;;;;5052233;28;20060;-68
2022/10/17 11:35:18;;;;;;;69.85;25.45;;;16.40;99.90;;;;;;5031551;28;20111;-69
2022/10/17 11:38:09;;;;;;;74.32;26.92;;;16.50;99.90;;;;;;5047025;28;20289;-67
2022/10/17 11:40:40;;;;;;;70.85;24.75;;;16.50;99.90;;;;;;5039910;28;20471;-68
2022/10/17 11:43:27;;;;;;;62.40;24.30;;;16.50;99.90;;;;;;5043652;28;20403;-70
2022/10/17 11:46:17;;;;;;;71.93;24.30;;;16.50;99.90;;;;;;5049882;28;20117;-68
2022/10/17 11:49:10;;;;;;;68.85;25.08;;;16.60;99.90;;;;;;5045060;28;20505;-68
2022/10/17 11:51:49;;;;;;;61.53;24.42;;;16.70;99.90;;;;;;5049352;28;20048;-68
2022/10/17 11:54:21;;;;;;;65.50;25.10;;;16.90;99.90;;;;;;5027032;28;20383;-69
2022/10/17 11:57:16;;;;;;;72.43;25.00;;;17.00;99.90;;;;;;5051859;28;20041;-69
2022/10/17 12:00:19;;;;;;;66.70;24.83;;;17.00;99.90;;;;;;5045974;28;20122;-71
2022/10/17 12:03:08;;;;;;;58.00;23.92;;;17.30;99.90;;;;;;5044738;28;20037;-72
2022/10/17 12:05:58;;;;;;;69.15;24.95;;;17.30;99.90;;;;;;5051476;28;20053;-72
2022/10/17 12:08:33;;;;;;;50.95;21.95;;;17.30;99.90;;;;;;5043012;28;20029;-71
2022/10/17 12:11:39;;;;;;;50.45;20.80;;;17.00;99.90;;;;;;5051233;28;20053;-70
2022/10/17 12:14:44;;;;;;;58.90;23.75;;;17.20;99.90;;;;;;5040476;28;20607;-73
2022/10/17 12:17:35;;;;;;;55.28;21.90;;;17.00;99.90;;;;;;5040231;28;20045;-70
2022/10/17 12:20:19;;;;;;;58.50;23.00;;;17.20;99.90;;;;;;5049568;28;20391;-73
2022/10/17 12:22:47;;;;;;;59.10;23.13;;;17.00;99.90;;;;;;5045128;28;20047;-70
2022/10/17 12:25:20;;;;;;;59.53;22.88;;;17.20;99.90;;;;;;5046449;28;20605;-70
2022/10/17 12:27:49;;;;;;;49.45;21.33;;;17.00;99.90;;;;;;5048959;28;20139;-72
2022/10/17 12:30:18;;;;;;;52.20;20.20;;;17.10;99.90;;;;;;5044098;28;20603;-71
2022/10/17 12:33:04;;;;;;;56.75;21.60;;;16.90;99.90;;;;;;5045344;28;20430;-68
2022/10/17 12:35:32;;;;;;;45.78;19.30;;;17.10;99.90;;;;;;5084274;28;20040;-73
2022/10/17 12:38:02;;;;;;;42.10;19.13;;;17.00;99.90;;;;;;5039713;28;20079;-70
2022/10/17 12:40:34;;;;;;;46.55;19.63;;;16.80;99.90;;;;;;5049717;28;20052;-70
2022/10/17 12:43:15;;;;;;;50.30;20.48;;;17.00;99.90;;;;;;5039909;28;20030;-68
2022/10/17 12:45:46;;;;;;;46.70;20.17;;;16.90;99.90;;;;;;5037195;28;20101;-69
2022/10/17 12:48:11;;;;;;;53.67;19.77;;;16.90;99.90;;;;;;5044843;28;20395;-68
2022/10/17 12:51:08;;;;;;;44.17;20.10;;;16.80;99.90;;;;;;5061844;28;20248;-68
2022/10/17 12:53:46;;;;;;;46.40;19.55;;;16.80;99.90;;;;;;5047040;28;20119;-67